createdAt,value
2022-08-26T00:02:01.729Z,32.28
2022-08-26T00:04:29.189Z,33.95
2022-08-26T00:06:56.757Z,41.53
2022-08-26T00:09:25.801Z,30.17
2022-08-26T00:11:54.517Z,36.83
2022-08-26T00:14:27.054Z,30.73
2022-08-26T00:16:59.163Z,34.60
2022-08-26T00:19:27.610Z,34.87
2022-08-26T00:21:54.733Z,31.25
2022-08-26T00:24:23.526Z,32.85
2022-08-26T00:26:53.549Z,35.10
2022-08-26T00:29:21.217Z,42.95
2022-08-26T00:31:48.603Z,47.50
2022-08-26T00:34:19.308Z,36.47
2022-08-26T00:36:49.321Z,33.15
2022-08-26T00:39:20.617Z,36.08
2022-08-26T00:41:48.461Z,28.63
2022-08-26T00:44:16.190Z,47.05
2022-08-26T00:46:49.670Z,30.27
2022-08-26T00:49:31.150Z,30.05
2022-08-26T00:52:03.164Z,32.53
2022-08-26T00:54:35.278Z,49.85
2022-08-26T00:57:23.130Z,21.60
2022-08-26T00:59:57.623Z,30.17
2022-08-26T01:02:25.094Z,34.47
2022-08-26T01:05:00.639Z,25.35
2022-08-26T01:07:31.702Z,28.10
2022-08-26T01:10:03.256Z,30.87
2022-08-26T01:12:40.148Z,34.05
2022-08-26T01:15:13.730Z,31.02
2022-08-26T01:17:41.572Z,30.42
2022-08-26T01:20:46.453Z,30.92
2022-08-26T01:23:15.275Z,24.40
2022-08-26T01:25:48.969Z,17.80
2022-08-26T01:28:31.686Z,25.63
2022-08-26T01:31:01.604Z,18.35
2022-08-26T01:34:06.133Z,19.67
2022-08-26T01:36:33.658Z,22.13
2022-08-26T01:39:02.824Z,24.55
2022-08-26T01:41:39.017Z,26.57
2022-08-26T01:44:09.941Z,23.25
2022-08-26T01:46:37.429Z,22.17
2022-08-26T01:49:08.558Z,19.08
2022-08-26T01:51:38.711Z,18.63
2022-08-26T01:54:11.914Z,14.10
2022-08-26T01:56:39.564Z,16.20
2022-08-26T01:59:13.033Z,14.90
2022-08-26T02:01:41.171Z,18.50
2022-08-26T02:04:20.961Z,13.40
2022-08-26T02:06:49.820Z,17.67
2022-08-26T02:09:19.938Z,13.93
2022-08-26T02:11:47.996Z,19.40
2022-08-26T02:14:26.825Z,13.88
2022-08-26T02:16:56.076Z,13.35
2022-08-26T02:19:31.009Z,21.85
2022-08-26T02:22:03.499Z,13.02
2022-08-26T02:25:23.999Z,26.17
2022-08-26T02:27:52.017Z,15.82
2022-08-26T02:30:28.432Z,16.27
2022-08-26T02:32:58.348Z,24.40
2022-08-26T02:35:25.883Z,16.20
2022-08-26T02:37:53.580Z,15.43
2022-08-26T02:40:28.153Z,10.98
2022-08-26T02:42:56.100Z,26.92
2022-08-26T02:45:26.683Z,16.70
2022-08-26T02:47:54.282Z,13.52
2022-08-26T02:50:25.210Z,17.42
2022-08-26T02:52:52.866Z,13.20
2022-08-26T02:55:20.472Z,17.05
2022-08-26T02:57:50.609Z,14.57
2022-08-26T03:00:19.170Z,12.80
2022-08-26T03:02:46.435Z,20.35
2022-08-26T03:05:13.673Z,11.85
2022-08-26T03:07:43.519Z,16.13
2022-08-26T03:10:13.244Z,15.40
2022-08-26T03:12:43.020Z,17.83
2022-08-26T03:15:17.894Z,18.92
2022-08-26T03:17:47.720Z,15.07
2022-08-26T03:20:17.329Z,16.42
2022-08-26T03:22:45.481Z,14.98
2022-08-26T03:25:16.950Z,20.25
2022-08-26T03:27:44.493Z,18.45
2022-08-26T03:30:32.508Z,21.08
2022-08-26T03:33:01.170Z,29.38
2022-08-26T03:35:29.002Z,19.60
2022-08-26T03:37:56.348Z,16.55
2022-08-26T03:40:23.687Z,15.13
2022-08-26T03:42:56.339Z,16.08
2022-08-26T03:45:23.510Z,20.08
2022-08-26T03:47:51.956Z,15.18
2022-08-26T03:50:24.347Z,23.23
2022-08-26T03:52:55.058Z,22.55
2022-08-26T03:55:28.210Z,20.48
2022-08-26T03:57:56.475Z,18.25
2022-08-26T04:00:25.027Z,17.40
2022-08-26T04:02:53.455Z,18.67
2022-08-26T04:05:22.776Z,29.60
2022-08-26T04:07:50.533Z,30.80
2022-08-26T04:10:28.664Z,19.65
2022-08-26T04:12:58.953Z,22.73
2022-08-26T04:15:27.150Z,21.95
2022-08-26T04:17:55.906Z,17.90
2022-08-26T04:20:24.653Z,22.88
2022-08-26T04:22:54.032Z,22.27
2022-08-26T04:25:22.497Z,18.13
2022-08-26T04:27:51.264Z,20.95
2022-08-26T04:30:20.059Z,25.52
2022-08-26T04:32:49.015Z,21.10
2022-08-26T04:35:16.439Z,18.75
2022-08-26T04:37:44.113Z,27.35
2022-08-26T04:40:11.396Z,19.52
2022-08-26T04:42:41.320Z,22.00
2022-08-26T04:45:10.142Z,21.77
2022-08-26T04:47:38.658Z,19.27
2022-08-26T04:50:07.664Z,24.35
2022-08-26T04:52:36.312Z,20.90
2022-08-26T04:55:06.553Z,19.70
2022-08-26T04:57:35.762Z,19.92
2022-08-26T05:00:07.396Z,21.95
2022-08-26T05:02:34.592Z,22.73
2022-08-26T05:05:03.282Z,23.73
2022-08-26T05:07:31.339Z,20.63
2022-08-26T05:09:59.020Z,29.50
2022-08-26T05:12:26.687Z,19.40
2022-08-26T05:14:54.089Z,18.00
2022-08-26T05:17:22.012Z,26.70
2022-08-26T05:19:50.634Z,25.42
2022-08-26T05:22:18.329Z,19.58
2022-08-26T05:24:46.506Z,19.73
2022-08-26T05:27:14.404Z,23.80
2022-08-26T05:29:42.432Z,19.38
2022-08-26T05:32:11.371Z,17.40
2022-08-26T05:34:38.621Z,21.00
2022-08-26T05:37:07.018Z,25.50
2022-08-26T05:39:34.479Z,19.15
2022-08-26T05:42:01.620Z,19.73
2022-08-26T05:44:29.386Z,16.55
2022-08-26T05:47:17.216Z,19.23
2022-08-26T05:49:51.474Z,16.63
2022-08-26T05:52:19.601Z,22.73
2022-08-26T05:54:47.670Z,18.80
2022-08-26T05:57:15.167Z,23.30
2022-08-26T05:59:42.204Z,16.80
2022-08-26T06:02:10.007Z,14.85
2022-08-26T06:04:37.073Z,19.23
2022-08-26T06:07:04.123Z,17.67
2022-08-26T06:09:32.836Z,22.42
2022-08-26T06:12:01.798Z,17.25
2022-08-26T06:14:30.530Z,18.60
2022-08-26T06:16:58.043Z,18.48
2022-08-26T06:19:25.075Z,22.55
2022-08-26T06:22:22.441Z,15.73
2022-08-26T06:25:09.933Z,15.73
2022-08-26T06:27:37.118Z,16.17
2022-08-26T06:30:04.725Z,13.63
2022-08-26T06:32:31.933Z,18.05
2022-08-26T06:34:59.190Z,22.92
2022-08-26T06:37:26.171Z,18.40
2022-08-26T06:39:53.156Z,12.07
2022-08-26T06:42:20.477Z,17.50
2022-08-26T06:44:47.478Z,25.85
2022-08-26T06:47:15.156Z,13.55
2022-08-26T06:49:44.339Z,14.73
2022-08-26T06:52:11.404Z,14.35
2022-08-26T06:54:43.099Z,13.18
2022-08-26T06:57:12.651Z,21.58
2022-08-26T06:59:41.347Z,11.15
2022-08-26T07:02:08.630Z,16.65
2022-08-26T07:04:41.132Z,19.33
2022-08-26T07:07:09.643Z,22.40
2022-08-26T07:09:37.435Z,15.13
2022-08-26T07:12:06.855Z,11.27
2022-08-26T07:14:34.799Z,19.50
2022-08-26T07:17:02.616Z,11.63
2022-08-26T07:19:31.646Z,16.58
2022-08-26T07:22:05.234Z,11.00
2022-08-26T07:24:35.920Z,10.18
2022-08-26T07:27:09.096Z,14.93
2022-08-26T07:29:38.035Z,20.05
2022-08-26T07:32:05.645Z,10.55
2022-08-26T07:34:33.939Z,10.27
2022-08-26T07:37:03.752Z,11.15
2022-08-26T07:39:31.936Z,21.95
2022-08-26T07:42:07.417Z,14.85
2022-08-26T07:44:37.345Z,15.63
2022-08-26T07:47:19.366Z,15.98
2022-08-26T07:49:54.876Z,11.52
2022-08-26T07:52:26.179Z,19.00
2022-08-26T07:54:54.615Z,10.13
2022-08-26T07:57:21.674Z,13.20
2022-08-26T07:59:54.990Z,14.82
2022-08-26T08:02:24.264Z,17.20
2022-08-26T08:04:51.839Z,12.98
2022-08-26T08:07:19.087Z,12.43
2022-08-26T08:09:49.701Z,11.82
2022-08-26T08:12:19.117Z,14.15
2022-08-26T08:14:47.248Z,18.08
2022-08-26T08:17:16.380Z,13.15
2022-08-26T08:19:43.791Z,13.13
2022-08-26T08:22:17.075Z,23.08
2022-08-26T08:24:45.343Z,13.57
2022-08-26T08:27:18.159Z,18.40
2022-08-26T08:29:50.041Z,7.18
2022-08-26T08:32:17.995Z,11.65
2022-08-26T08:34:45.002Z,20.80
2022-08-26T08:37:12.112Z,16.77
2022-08-26T08:39:39.147Z,12.95
2022-08-26T08:42:46.970Z,9.10
2022-08-26T08:45:36.734Z,10.15
2022-08-26T08:48:13.012Z,15.32
2022-08-26T08:50:50.367Z,16.40
2022-08-26T08:53:38.207Z,12.60
2022-08-26T08:56:26.041Z,13.65
2022-08-26T08:59:24.261Z,9.45
2022-08-26T09:02:11.516Z,9.73
2022-08-26T09:05:15.396Z,13.45
2022-08-26T09:08:06.829Z,10.07
2022-08-26T09:10:49.734Z,12.75
2022-08-26T09:13:25.260Z,10.07
2022-08-26T09:16:46.656Z,13.40
2022-08-26T09:22:08.820Z,18.20
2022-08-26T09:24:41.799Z,14.77
2022-08-26T09:27:40.416Z,10.45
2022-08-26T09:30:11.533Z,14.23
2022-08-26T09:32:39.351Z,8.95
2022-08-26T09:35:30.904Z,12.70
2022-08-26T09:38:32.908Z,11.65
2022-08-26T09:41:18.989Z,15.65
2022-08-26T09:44:09.527Z,11.55
2022-08-26T09:47:04.997Z,8.98
2022-08-26T09:49:37.993Z,9.80
2022-08-26T09:52:17.547Z,18.73
2022-08-26T09:54:58.232Z,9.40
2022-08-26T09:57:30.551Z,11.25
2022-08-26T09:59:57.989Z,19.60
2022-08-26T10:02:39.335Z,10.95
2022-08-26T10:05:16.342Z,12.27
2022-08-26T10:07:51.289Z,10.93
2022-08-26T10:10:45.294Z,13.13
2022-08-26T10:13:23.977Z,13.38
2022-08-26T10:16:11.097Z,17.27
2022-08-26T10:19:08.253Z,15.75
2022-08-26T10:22:02.481Z,11.05
2022-08-26T10:24:41.154Z,14.80
2022-08-26T10:27:40.525Z,10.18
2022-08-26T10:30:21.690Z,15.23
2022-08-26T10:33:15.364Z,6.97
2022-08-26T10:35:59.095Z,8.43
2022-08-26T10:41:22.885Z,10.75
2022-08-26T10:43:59.281Z,14.75
2022-08-26T10:46:40.987Z,13.88
2022-08-26T10:49:16.154Z,12.18
2022-08-26T10:52:12.066Z,11.55
2022-08-26T10:54:48.318Z,11.70
2022-08-26T10:57:46.540Z,12.07
2022-08-26T11:00:39.802Z,10.00
2022-08-26T11:03:35.120Z,15.27
2022-08-26T11:06:30.451Z,9.95
2022-08-26T11:09:07.577Z,11.27
2022-08-26T11:11:40.496Z,9.43
2022-08-26T11:14:29.096Z,11.95
2022-08-26T11:16:58.605Z,15.85
2022-08-26T11:19:59.535Z,10.13
2022-08-26T11:22:38.092Z,7.50
2022-08-26T11:25:19.759Z,15.02
2022-08-26T11:27:52.394Z,12.90
2022-08-26T11:30:20.376Z,7.93
2022-08-26T11:32:51.331Z,13.60
2022-08-26T11:35:18.584Z,19.27
2022-08-26T11:37:56.718Z,12.52
2022-08-26T11:40:38.438Z,7.40
2022-08-26T11:43:20.625Z,9.25
2022-08-26T11:46:10.731Z,11.15
2022-08-26T11:48:44.658Z,9.05
2022-08-26T11:51:35.890Z,18.17
2022-08-26T11:54:12.958Z,13.02
2022-08-26T11:56:42.808Z,16.83
2022-08-26T11:59:15.618Z,8.05
2022-08-26T12:01:49.096Z,11.15
2022-08-26T12:04:34.548Z,8.48
2022-08-26T12:07:02.691Z,9.73
2022-08-26T12:09:37.865Z,14.77
2022-08-26T12:12:38.677Z,6.53
2022-08-26T12:15:17.070Z,16.38
2022-08-26T12:17:48.584Z,7.38
2022-08-26T12:21:08.195Z,9.80
2022-08-26T12:23:36.516Z,12.32
2022-08-26T12:26:11.792Z,7.72
2022-08-26T12:29:20.243Z,9.63
2022-08-26T12:32:17.654Z,8.60
2022-08-26T12:34:49.066Z,8.93
2022-08-26T12:37:17.030Z,13.35
2022-08-26T12:39:46.307Z,11.70
2022-08-26T12:42:13.198Z,14.48
2022-08-26T12:45:06.487Z,11.02
2022-08-26T12:47:44.133Z,13.20
2022-08-26T12:50:20.486Z,15.48
2022-08-26T12:53:09.597Z,19.15
2022-08-26T12:55:59.089Z,12.27
2022-08-26T12:58:36.813Z,17.02
2022-08-26T13:01:07.194Z,11.10
2022-08-26T13:03:34.170Z,8.10
2022-08-26T13:06:15.950Z,13.00
2022-08-26T13:08:51.895Z,12.25
2022-08-26T13:11:34.261Z,12.95
2022-08-26T13:14:15.880Z,13.40
2022-08-26T13:16:52.879Z,14.15
2022-08-26T13:19:23.495Z,8.10
2022-08-26T13:21:57.579Z,12.88
2022-08-26T13:24:39.703Z,14.77
2022-08-26T13:27:10.340Z,11.43
2022-08-26T13:29:37.489Z,10.90
2022-08-26T13:32:07.022Z,14.25
2022-08-26T13:34:36.468Z,14.05
2022-08-26T13:37:03.632Z,12.48
2022-08-26T13:39:30.700Z,17.65
2022-08-26T13:41:58.284Z,14.35
2022-08-26T13:44:25.458Z,18.25
2022-08-26T13:46:52.611Z,14.20
2022-08-26T13:49:19.742Z,11.75
2022-08-26T13:51:46.791Z,13.60
2022-08-26T13:54:14.104Z,8.73
2022-08-26T13:56:41.170Z,16.55
2022-08-26T13:59:08.237Z,9.82
2022-08-26T14:01:36.137Z,6.75
2022-08-26T14:04:03.819Z,7.95
2022-08-26T14:06:31.181Z,10.50
2022-08-26T14:08:58.739Z,13.02
2022-08-26T14:11:27.006Z,9.77
2022-08-26T14:13:54.032Z,12.25
2022-08-26T14:16:33.511Z,13.35
2022-08-26T14:19:02.207Z,15.43
2022-08-26T14:21:36.840Z,17.48
2022-08-26T14:24:06.312Z,14.95
2022-08-26T14:26:33.549Z,10.68
2022-08-26T14:29:03.822Z,14.80
2022-08-26T14:31:33.095Z,11.45
2022-08-26T14:34:09.884Z,12.38
2022-08-26T14:36:38.151Z,8.65
2022-08-26T14:39:10.661Z,9.98
2022-08-26T14:41:56.797Z,11.80
2022-08-26T14:44:32.891Z,13.40
2022-08-26T14:47:04.181Z,6.90
2022-08-26T14:49:31.810Z,12.20
2022-08-26T14:51:59.370Z,11.48
2022-08-26T14:54:26.620Z,8.88
2022-08-26T14:56:58.622Z,10.88
2022-08-26T14:59:39.476Z,13.75
2022-08-26T15:02:10.629Z,7.73
2022-08-26T15:04:41.515Z,9.05
2022-08-26T15:07:09.418Z,10.48
2022-08-26T15:09:42.500Z,14.50
2022-08-26T15:12:09.618Z,17.38
2022-08-26T15:14:36.679Z,15.85
2022-08-26T15:17:04.720Z,14.75
2022-08-26T15:19:31.768Z,27.60
2022-08-26T15:21:58.975Z,9.60
2022-08-26T15:24:29.047Z,11.93
2022-08-26T15:26:56.513Z,16.15
2022-08-26T15:29:24.158Z,9.45
2022-08-26T15:31:51.513Z,11.02
2022-08-26T15:34:22.288Z,12.40
2022-08-26T15:36:49.336Z,12.43
2022-08-26T15:39:17.611Z,15.80
2022-08-26T15:41:45.447Z,12.00
2022-08-26T15:44:14.398Z,12.07
2022-08-26T15:46:42.687Z,11.43
2022-08-26T15:49:12.867Z,12.15
2022-08-26T15:51:47.053Z,11.13
2022-08-26T15:54:16.742Z,17.50
2022-08-26T15:56:45.528Z,16.58
2022-08-26T15:59:15.451Z,9.63
2022-08-26T16:01:43.710Z,11.52
2022-08-26T16:04:11.543Z,8.48
2022-08-26T16:06:43.570Z,13.65
2022-08-26T16:09:11.146Z,10.13
2022-08-26T16:11:38.415Z,13.60
2022-08-26T16:14:06.319Z,8.20
2022-08-26T16:16:33.773Z,8.85
2022-08-26T16:19:05.559Z,14.70
2022-08-26T16:21:34.613Z,11.77
2022-08-26T16:24:01.780Z,10.93
2022-08-26T16:26:33.191Z,9.27
2022-08-26T16:29:08.897Z,11.05
2022-08-26T16:31:38.382Z,16.67
2022-08-26T16:34:07.818Z,11.00
2022-08-26T16:36:37.289Z,17.90
2022-08-26T16:39:07.328Z,9.85
2022-08-26T16:41:35.356Z,19.15
2022-08-26T16:44:03.666Z,9.85
2022-08-26T16:46:31.109Z,14.57
2022-08-26T16:48:59.483Z,16.20
2022-08-26T16:51:28.273Z,21.95
2022-08-26T16:53:57.535Z,13.50
2022-08-26T16:56:33.653Z,8.88
2022-08-26T16:59:07.486Z,14.07
2022-08-26T17:01:34.935Z,18.33
2022-08-26T17:04:02.206Z,15.15
2022-08-26T17:06:30.025Z,15.00
2022-08-26T17:08:57.078Z,23.27
2022-08-26T17:11:24.275Z,13.73
2022-08-26T17:13:51.389Z,17.75
2022-08-26T17:16:18.757Z,24.42
2022-08-26T17:18:47.786Z,12.25
2022-08-26T17:21:14.968Z,17.05
2022-08-26T17:23:43.687Z,11.98
2022-08-26T17:26:12.348Z,14.63
2022-08-26T17:28:40.445Z,16.10
2022-08-26T17:31:10.629Z,13.50
2022-08-26T17:33:39.373Z,12.25
2022-08-26T17:36:08.551Z,11.93
2022-08-26T17:38:37.695Z,13.10
2022-08-26T17:41:09.578Z,23.38
2022-08-26T17:43:38.434Z,14.98
2022-08-26T17:46:10.070Z,18.30
2022-08-26T17:48:38.728Z,17.50
2022-08-26T17:51:15.437Z,21.23
2022-08-26T17:53:43.297Z,14.88
2022-08-26T17:56:14.256Z,9.77
2022-08-26T17:58:51.133Z,11.23
2022-08-26T18:01:26.117Z,20.25
2022-08-26T18:04:00.120Z,21.00
2022-08-26T18:06:30.740Z,11.40
2022-08-26T18:08:59.473Z,16.63
2022-08-26T18:11:27.385Z,13.43
2022-08-26T18:13:54.370Z,14.60
2022-08-26T18:16:21.799Z,14.90
2022-08-26T18:18:53.404Z,17.10
2022-08-26T18:23:51.964Z,14.40
2022-08-26T18:26:28.010Z,17.73
2022-08-26T18:28:55.501Z,23.05
2022-08-26T18:31:22.805Z,16.10
2022-08-26T18:33:50.178Z,15.93
2022-08-26T18:36:27.336Z,16.92
2022-08-26T18:38:55.536Z,25.65
2022-08-26T18:41:28.971Z,16.52
2022-08-26T18:43:56.591Z,17.85
2022-08-26T18:46:26.727Z,16.58
2022-08-26T18:48:55.680Z,16.13
2022-08-26T18:51:30.814Z,27.77
2022-08-26T18:53:59.774Z,33.13
2022-08-26T18:56:27.718Z,19.58
2022-08-26T18:58:54.689Z,18.67
2022-08-26T19:01:26.665Z,22.42
2022-08-26T19:03:59.449Z,30.35
2022-08-26T19:06:29.561Z,22.85
2022-08-26T19:08:58.014Z,28.95
2022-08-26T19:11:32.557Z,27.67
2022-08-26T19:14:09.162Z,24.33
2022-08-26T19:16:37.438Z,25.00
2022-08-26T19:19:05.544Z,22.60
2022-08-26T19:21:36.105Z,28.70
2022-08-26T19:24:09.316Z,27.23
2022-08-26T19:26:38.980Z,29.15
2022-08-26T19:29:06.693Z,30.13
2022-08-26T19:31:33.978Z,25.73
2022-08-26T19:34:01.264Z,27.25
2022-08-26T19:36:33.383Z,27.50
2022-08-26T19:39:05.027Z,21.00
2022-08-26T19:41:38.152Z,19.92
2022-08-26T19:44:33.771Z,28.85
2022-08-26T19:47:01.636Z,21.85
2022-08-26T19:49:28.962Z,22.70
2022-08-26T19:51:56.844Z,22.90
2022-08-26T19:54:24.639Z,22.27
2022-08-26T19:56:52.105Z,16.92
2022-08-26T19:59:19.344Z,19.00
2022-08-26T20:01:47.047Z,18.30
2022-08-26T20:04:20.233Z,25.23
2022-08-26T20:06:47.492Z,40.50
2022-08-26T20:09:19.432Z,24.85
2022-08-26T20:11:46.619Z,18.17
2022-08-26T20:14:14.082Z,17.88
2022-08-26T20:16:41.341Z,24.95
2022-08-26T20:19:27.468Z,20.10
2022-08-26T20:21:54.730Z,18.73
2022-08-26T20:24:22.108Z,24.38
2022-08-26T20:26:49.900Z,18.98
2022-08-26T20:29:18.774Z,18.08
2022-08-26T20:31:48.025Z,17.98
2022-08-26T20:34:18.679Z,23.38
2022-08-26T20:36:48.181Z,25.80
2022-08-26T20:39:18.342Z,22.63
2022-08-26T20:41:45.596Z,23.08
2022-08-26T20:44:14.042Z,21.48
2022-08-26T20:46:41.931Z,24.10
2022-08-26T20:49:09.617Z,29.33
2022-08-26T20:51:37.861Z,29.40
2022-08-26T20:54:07.526Z,30.88
2022-08-26T20:56:35.502Z,21.88
2022-08-26T20:59:02.998Z,31.17
2022-08-26T21:01:41.977Z,31.92
2022-08-26T21:04:29.443Z,19.17
2022-08-26T21:06:56.894Z,16.25
2022-08-26T21:09:25.775Z,18.42
2022-08-26T21:11:54.989Z,19.73
2022-08-26T21:14:25.962Z,19.75
2022-08-26T21:16:53.973Z,13.50
2022-08-26T21:19:21.329Z,24.55
2022-08-26T21:21:50.273Z,21.95
2022-08-26T21:24:18.350Z,27.00
2022-08-26T21:26:46.421Z,14.98
2022-08-26T21:29:13.876Z,21.38
2022-08-26T21:31:46.177Z,12.70
2022-08-26T21:34:19.243Z,15.82
2022-08-26T21:36:47.873Z,21.33
2022-08-26T21:39:16.404Z,16.77
2022-08-26T21:41:44.755Z,13.82
2022-08-26T21:44:14.487Z,17.10
2022-08-26T21:46:43.581Z,22.67
2022-08-26T21:49:13.917Z,14.68
2022-08-26T21:51:45.832Z,12.40
2022-08-26T21:56:46.461Z,15.05
2022-08-26T21:59:24.382Z,14.10
2022-08-26T22:01:52.519Z,21.20
2022-08-26T22:04:21.060Z,19.63
2022-08-26T22:06:51.969Z,19.50
2022-08-26T22:09:23.529Z,22.35
2022-08-26T22:12:00.627Z,18.67
2022-08-26T22:14:30.905Z,15.25
2022-08-26T22:17:00.072Z,20.77
2022-08-26T22:19:27.395Z,17.58
2022-08-26T22:21:55.868Z,29.25
2022-08-26T22:26:59.369Z,14.57
2022-08-26T22:29:29.289Z,18.60
2022-08-26T22:31:57.323Z,19.30
2022-08-26T22:34:24.582Z,18.90
2022-08-26T22:36:51.983Z,13.48
2022-08-26T22:39:23.645Z,21.05
2022-08-26T22:41:52.266Z,13.77
2022-08-26T22:44:22.189Z,18.13
2022-08-26T22:46:53.091Z,16.92
2022-08-26T22:49:21.228Z,16.05
2022-08-26T22:51:48.999Z,15.30
2022-08-26T22:54:17.243Z,18.40
2022-08-26T22:56:45.628Z,14.05
2022-08-26T22:59:13.491Z,23.38
2022-08-26T23:01:43.103Z,31.60
2022-08-26T23:04:11.849Z,14.90
2022-08-26T23:06:41.655Z,16.27
2022-08-26T23:09:09.858Z,20.13
2022-08-26T23:11:39.863Z,17.25
2022-08-26T23:14:10.392Z,14.82
2022-08-26T23:16:43.894Z,32.08
2022-08-26T23:19:16.739Z,25.10
2022-08-26T23:21:44.570Z,18.80
2022-08-26T23:24:12.366Z,11.18
2022-08-26T23:26:41.519Z,16.02
2022-08-26T23:29:12.397Z,16.08
2022-08-26T23:31:50.636Z,17.80
2022-08-26T23:34:36.764Z,16.92
2022-08-26T23:37:06.233Z,20.65
2022-08-26T23:39:36.188Z,23.98
2022-08-26T23:42:04.306Z,18.13
2022-08-26T23:44:31.561Z,24.50
2022-08-26T23:46:59.863Z,21.38
2022-08-26T23:49:27.790Z,16.30
2022-08-26T23:52:13.654Z,14.75
2022-08-26T23:54:41.562Z,17.75
2022-08-26T23:57:09.904Z,16.75
2022-08-26T23:59:38.819Z,20.73
